Time;durP1;ratioP1;P1;durP2;ratioP2;P2;SDS_P1;SDS_P2;PMS_P1;PMS_P2;Temp;Humidity;BMP_temperature;BMP_pressure;BME280_temperature;BME280_humidity;BME280_pressure;Samples;Min_cycle;Max_cycle;Signal;HPM_P1;HPM_P2
2023/02/18 00:02:04;;;;;;;22.05;3.75;;;8.60;99.90;;;;;;4656228;30;20202;-78
2023/02/18 00:04:30;;;;;;;24.65;4.10;;;8.70;99.90;;;;;;4654560;30;20578;-76
2023/02/18 00:06:56;;;;;;;28.67;4.10;;;8.70;99.90;;;;;;4653473;30;20723;-80
2023/02/18 00:09:22;;;;;;;17.75;3.30;;;8.70;99.90;;;;;;4653526;30;20201;-79
2023/02/18 00:11:48;;;;;;;19.52;3.67;;;8.70;99.90;;;;;;4637100;30;20206;-81
2023/02/18 00:14:16;;;;;;;28.02;3.85;;;8.70;99.90;;;;;;4654132;30;20247;-76
2023/02/18 00:16:43;;;;;;;22.48;3.88;;;8.60;99.90;;;;;;4653385;30;20237;-79
2023/02/18 00:19:13;;;;;;;28.58;3.53;;;8.70;99.90;;;;;;4653619;30;20245;-77
2023/02/18 00:21:39;;;;;;;22.48;3.58;;;8.70;99.90;;;;;;4653087;30;20204;-80
2023/02/18 00:24:06;;;;;;;20.90;3.45;;;8.70;99.90;;;;;;4653029;30;20491;-79
2023/02/18 00:26:33;;;;;;;19.17;3.53;;;8.70;99.90;;;;;;4645006;30;20189;-78
2023/02/18 00:28:59;;;;;;;22.77;4.05;;;8.70;99.90;;;;;;4638931;30;20197;-80
2023/02/18 00:31:36;;;;;;;17.48;3.17;;;8.70;99.90;;;;;;4653265;30;20292;-79
2023/02/18 00:34:04;;;;;;;26.73;3.60;;;8.70;99.90;;;;;;4653053;30;20288;-79
2023/02/18 00:36:30;;;;;;;18.15;3.33;;;8.70;99.90;;;;;;4639251;30;20203;-78
2023/02/18 00:38:58;;;;;;;19.40;3.40;;;8.70;99.90;;;;;;4653261;30;20563;-77
2023/02/18 00:41:26;;;;;;;18.63;3.67;;;8.70;99.90;;;;;;4652452;30;20201;-78
2023/02/18 00:43:52;;;;;;;15.00;3.30;;;8.70;99.90;;;;;;4653354;30;20733;-80
2023/02/18 00:46:19;;;;;;;19.38;3.40;;;8.60;99.90;;;;;;4633804;30;20572;-78
2023/02/18 00:48:45;;;;;;;19.90;3.22;;;8.60;99.90;;;;;;4638493;30;20401;-76
2023/02/18 00:51:11;;;;;;;17.15;3.33;;;8.70;99.90;;;;;;4648974;30;20209;-79
2023/02/18 00:53:38;;;;;;;19.50;3.45;;;8.60;99.90;;;;;;4639803;30;20220;-77
2023/02/18 00:56:05;;;;;;;20.15;3.85;;;8.60;99.90;;;;;;4641181;30;20726;-75
2023/02/18 00:58:31;;;;;;;21.38;3.72;;;8.60;99.90;;;;;;4654488;30;20651;-80
2023/02/18 01:00:58;;;;;;;20.50;3.67;;;8.60;99.90;;;;;;4652055;30;20885;-77
2023/02/18 01:03:24;;;;;;;21.20;4.20;;;8.60;99.90;;;;;;4640338;30;20297;-77
2023/02/18 01:05:50;;;;;;;22.63;4.10;;;8.60;99.90;;;;;;4639688;30;20877;-77
2023/02/18 01:08:18;;;;;;;15.68;3.88;;;8.60;99.90;;;;;;4654406;30;20679;-76
2023/02/18 01:10:46;;;;;;;17.30;3.78;;;8.60;99.90;;;;;;4653669;30;20355;-77
2023/02/18 01:13:13;;;;;;;20.15;3.92;;;8.60;99.90;;;;;;4638587;30;20242;-78
2023/02/18 01:15:40;;;;;;;17.10;3.53;;;8.60;99.90;;;;;;4654370;30;20216;-76
2023/02/18 01:18:07;;;;;;;21.25;4.07;;;8.60;99.90;;;;;;4655092;30;20250;-80
2023/02/18 01:20:35;;;;;;;21.25;3.75;;;8.60;99.90;;;;;;4654591;30;20260;-77
2023/02/18 01:23:00;;;;;;;18.05;3.78;;;8.60;99.90;;;;;;4640175;30;20457;-79
2023/02/18 01:25:26;;;;;;;20.25;3.92;;;8.50;99.90;;;;;;4632811;30;20211;-79
2023/02/18 01:27:52;;;;;;;14.50;3.85;;;8.60;99.90;;;;;;4656942;30;20289;-78
2023/02/18 01:30:19;;;;;;;22.30;4.28;;;8.50;99.90;;;;;;4641229;30;20620;-78
2023/02/18 01:32:45;;;;;;;21.65;4.15;;;8.50;99.90;;;;;;4650623;30;20221;-77
2023/02/18 01:35:15;;;;;;;23.77;4.47;;;8.60;99.90;;;;;;4638332;30;20637;-77
2023/02/18 01:37:41;;;;;;;20.88;3.95;;;8.60;99.90;;;;;;4625011;30;20209;-77
2023/02/18 01:40:11;;;;;;;20.00;4.20;;;8.60;99.90;;;;;;4651837;30;20825;-78
2023/02/18 01:42:37;;;;;;;15.23;3.70;;;8.60;99.90;;;;;;4635863;30;21187;-78
2023/02/18 01:45:31;;;;;;;24.13;4.28;;;8.60;99.90;;;;;;4637040;30;20200;-76
2023/02/18 01:47:57;;;;;;;23.25;3.72;;;8.60;99.90;;;;;;4652346;30;20824;-80
2023/02/18 01:50:23;;;;;;;18.85;4.03;;;8.60;99.90;;;;;;4652573;30;20252;-79
2023/02/18 01:52:49;;;;;;;23.00;3.95;;;8.60;99.90;;;;;;4630079;30;20201;-77
2023/02/18 01:55:15;;;;;;;18.08;4.18;;;8.60;99.90;;;;;;4652044;30;20206;-81
2023/02/18 01:57:42;;;;;;;19.92;4.20;;;8.60;99.90;;;;;;4648315;30;20200;-76
2023/02/18 02:00:15;;;;;;;20.95;4.03;;;8.70;99.90;;;;;;4652324;30;20202;-80
2023/02/18 02:02:45;;;;;;;21.15;4.18;;;8.70;99.90;;;;;;4636995;30;20193;-77
2023/02/18 02:05:11;;;;;;;19.52;4.25;;;8.70;99.90;;;;;;4635381;30;21180;-79
2023/02/18 02:07:39;;;;;;;23.05;4.68;;;8.70;99.90;;;;;;4638806;30;20208;-79
2023/02/18 02:10:06;;;;;;;24.63;4.78;;;8.70;99.90;;;;;;4635273;30;20201;-77
2023/02/18 02:13:01;;;;;;;19.45;3.85;;;8.70;99.90;;;;;;4633961;30;20296;-77
2023/02/18 02:15:46;;;;;;;19.30;4.07;;;8.70;99.90;;;;;;4651893;30;20208;-78
2023/02/18 02:18:41;;;;;;;21.30;3.80;;;8.70;99.90;;;;;;4651783;30;20237;-77
2023/02/18 02:21:31;;;;;;;24.77;4.93;;;8.80;99.90;;;;;;4649295;30;20345;-79
2023/02/18 02:24:30;;;;;;;21.17;4.13;;;8.70;99.90;;;;;;4637848;30;20197;-78
2023/02/18 02:27:27;;;;;;;18.05;4.40;;;8.80;99.90;;;;;;4642380;30;20212;-80
2023/02/18 02:30:44;;;;;;;16.58;4.10;;;8.80;99.90;;;;;;4608553;30;20213;-76
2023/02/18 02:33:50;;;;;;;21.20;4.90;;;8.80;99.90;;;;;;4613835;30;20506;-80
2023/02/18 02:36:42;;;;;;;25.08;4.30;;;8.70;99.90;;;;;;4640404;30;20237;-80
2023/02/18 02:39:17;;;;;;;24.83;4.47;;;8.80;99.90;;;;;;4629530;30;20660;-77
2023/02/18 02:42:02;;;;;;;21.65;5.63;;;8.80;99.90;;;;;;4633958;30;20200;-77
2023/02/18 02:44:43;;;;;;;22.05;4.70;;;8.80;99.90;;;;;;4638096;30;20316;-77
2023/02/18 02:47:48;;;;;;;34.33;4.90;;;8.80;99.90;;;;;;4638732;30;20657;-76
2023/02/18 02:50:24;;;;;;;16.70;4.25;;;8.80;99.90;;;;;;4640120;30;20671;-76
2023/02/18 02:52:58;;;;;;;21.85;4.63;;;8.80;99.90;;;;;;4639005;30;20200;-79
2023/02/18 02:55:23;;;;;;;19.00;4.22;;;8.80;99.90;;;;;;4637525;30;20677;-77
2023/02/18 02:57:54;;;;;;;24.13;4.22;;;8.80;99.90;;;;;;4639658;30;20215;-80
2023/02/18 03:00:42;;;;;;;16.35;3.75;;;8.90;99.90;;;;;;4627279;30;20193;-81
2023/02/18 03:03:34;;;;;;;23.38;4.22;;;8.90;99.90;;;;;;4628028;30;20552;-76
2023/02/18 03:06:20;;;;;;;19.20;4.15;;;8.90;99.90;;;;;;4629578;30;20580;-76
2023/02/18 03:09:12;;;;;;;18.02;3.92;;;8.80;99.90;;;;;;4652699;30;20284;-77
2023/02/18 03:11:47;;;;;;;18.45;4.18;;;8.80;99.90;;;;;;4633300;30;20186;-80
2023/02/18 03:15:02;;;;;;;25.40;4.82;;;8.90;99.90;;;;;;4652113;30;20225;-78
2023/02/18 03:17:43;;;;;;;20.38;4.38;;;8.90;99.90;;;;;;4588866;30;20711;-76
2023/02/18 03:20:12;;;;;;;20.25;4.47;;;8.90;99.90;;;;;;4641036;30;20201;-77
2023/02/18 03:22:42;;;;;;;19.20;4.43;;;8.90;99.90;;;;;;4637562;30;20270;-80
2023/02/18 03:25:11;;;;;;;16.88;4.70;;;8.90;99.90;;;;;;4636988;30;20185;-78
2023/02/18 03:28:00;;;;;;;21.73;5.03;;;8.90;99.90;;;;;;4637618;30;20281;-78
2023/02/18 03:30:30;;;;;;;15.77;4.43;;;8.90;99.90;;;;;;4651432;30;21279;-78
2023/02/18 03:33:02;;;;;;;22.20;5.32;;;8.90;99.90;;;;;;4652024;30;20196;-79
2023/02/18 03:35:28;;;;;;;15.43;4.70;;;8.90;99.90;;;;;;4651694;30;20569;-78
2023/02/18 03:38:23;;;;;;;21.65;4.70;;;8.90;99.90;;;;;;4648626;30;20197;-78
2023/02/18 03:40:49;;;;;;;20.67;5.13;;;8.90;99.90;;;;;;4646897;30;20214;-81
2023/02/18 03:43:16;;;;;;;17.70;4.40;;;9.00;99.90;;;;;;4650813;30;20347;-77
2023/02/18 03:45:42;;;;;;;16.25;5.03;;;9.00;99.90;;;;;;4627332;30;20696;-76
2023/02/18 03:48:08;;;;;;;18.65;4.57;;;9.00;99.90;;;;;;4655889;30;20216;-77
2023/02/18 03:50:34;;;;;;;15.27;5.03;;;9.00;99.90;;;;;;4641634;30;20206;-81
2023/02/18 03:53:00;;;;;;;19.88;5.20;;;9.00;99.90;;;;;;4655389;30;20225;-76
2023/02/18 03:55:26;;;;;;;16.05;5.00;;;9.00;99.90;;;;;;4640490;30;20212;-77
2023/02/18 03:57:51;;;;;;;22.05;4.60;;;9.00;99.90;;;;;;4653978;30;20198;-79
2023/02/18 04:00:18;;;;;;;17.83;4.93;;;9.00;99.90;;;;;;4632250;30;20276;-80
2023/02/18 04:02:44;;;;;;;21.35;5.93;;;9.00;99.90;;;;;;4638879;30;20198;-79
2023/02/18 04:05:11;;;;;;;18.25;5.68;;;9.00;99.90;;;;;;4653874;30;20193;-77
2023/02/18 04:07:37;;;;;;;20.52;5.40;;;9.00;99.90;;;;;;4654152;30;20193;-81
2023/02/18 04:10:05;;;;;;;18.70;5.47;;;9.00;99.90;;;;;;4653831;30;20304;-75
2023/02/18 04:12:31;;;;;;;19.00;5.78;;;9.00;99.90;;;;;;4652565;30;20277;-79
2023/02/18 04:14:57;;;;;;;19.55;5.82;;;9.00;99.90;;;;;;4639770;30;20582;-76
2023/02/18 04:17:22;;;;;;;22.02;5.93;;;9.00;99.90;;;;;;4654946;30;20244;-75
2023/02/18 04:19:48;;;;;;;18.58;5.82;;;9.00;99.90;;;;;;4655345;30;20202;-77
2023/02/18 04:22:14;;;;;;;26.38;6.38;;;9.00;99.90;;;;;;4631225;30;20201;-77
2023/02/18 04:24:40;;;;;;;21.60;5.75;;;9.00;99.90;;;;;;4650237;30;20201;-81
2023/02/18 04:27:06;;;;;;;20.50;6.05;;;9.00;99.90;;;;;;4655044;30;20208;-76
2023/02/18 04:29:31;;;;;;;21.63;6.30;;;9.00;99.90;;;;;;4655374;30;20731;-79
2023/02/18 04:31:57;;;;;;;23.48;6.65;;;9.00;99.90;;;;;;4640468;30;20217;-80
2023/02/18 04:34:23;;;;;;;19.42;6.25;;;9.00;99.90;;;;;;4654988;30;20857;-78
2023/02/18 04:36:49;;;;;;;18.50;5.90;;;9.00;99.90;;;;;;4650402;30;20667;-78
2023/02/18 04:39:14;;;;;;;22.80;6.13;;;9.00;99.90;;;;;;4651432;30;20626;-77
2023/02/18 04:41:40;;;;;;;25.20;6.55;;;9.00;99.90;;;;;;4639163;30;20200;-78
2023/02/18 04:44:06;;;;;;;18.67;6.63;;;8.90;99.90;;;;;;4651282;30;20202;-80
2023/02/18 04:46:32;;;;;;;19.05;6.55;;;8.90;99.90;;;;;;4653861;30;20205;-77
2023/02/18 04:48:57;;;;;;;19.55;6.45;;;8.90;99.90;;;;;;4653553;30;20205;-77
2023/02/18 04:51:23;;;;;;;22.10;7.30;;;8.90;99.90;;;;;;4652831;30;20202;-80
2023/02/18 04:53:49;;;;;;;22.65;8.25;;;8.90;99.90;;;;;;4653227;30;20233;-76
2023/02/18 04:56:15;;;;;;;27.17;8.98;;;8.90;99.90;;;;;;4652583;30;22800;-79
2023/02/18 04:58:40;;;;;;;25.05;9.38;;;8.90;99.90;;;;;;4654006;30;20201;-80
2023/02/18 05:01:06;;;;;;;25.30;10.50;;;8.90;99.90;;;;;;4651409;30;21309;-79
2023/02/18 05:03:32;;;;;;;28.25;10.85;;;8.90;99.90;;;;;;4625419;30;20217;-80
2023/02/18 05:05:58;;;;;;;27.67;12.52;;;8.90;99.90;;;;;;4650374;30;20205;-79
2023/02/18 05:08:24;;;;;;;37.03;13.60;;;8.90;99.90;;;;;;4649767;30;20292;-81
2023/02/18 05:10:50;;;;;;;27.23;13.90;;;8.90;99.90;;;;;;4652146;30;20201;-76
2023/02/18 05:13:16;;;;;;;33.78;15.15;;;8.90;99.90;;;;;;4654822;30;20344;-80
2023/02/18 05:15:42;;;;;;;35.72;16.23;;;8.90;99.90;;;;;;4653727;30;20209;-77
2023/02/18 05:18:08;;;;;;;39.38;18.20;;;9.00;99.90;;;;;;4653743;30;20237;-78
2023/02/18 05:20:34;;;;;;;41.15;19.27;;;8.90;99.90;;;;;;4652920;30;20297;-80
2023/02/18 05:22:59;;;;;;;40.83;19.20;;;8.90;99.90;;;;;;4653232;30;20201;-78
2023/02/18 05:25:25;;;;;;;43.75;20.85;;;8.90;99.90;;;;;;4642593;30;20209;-76
2023/02/18 05:27:51;;;;;;;42.55;21.92;;;9.00;99.90;;;;;;4651837;30;20312;-78
2023/02/18 05:30:17;;;;;;;48.83;22.60;;;9.00;99.90;;;;;;4656313;30;20208;-76
2023/02/18 05:32:43;;;;;;;51.72;24.38;;;9.00;99.90;;;;;;4634520;30;20209;-77
2023/02/18 05:35:09;;;;;;;46.72;23.02;;;9.00;99.90;;;;;;4653606;30;20241;-79
2023/02/18 05:37:35;;;;;;;45.95;24.75;;;9.00;99.90;;;;;;4628652;30;20306;-77
2023/02/18 05:40:01;;;;;;;47.47;25.40;;;9.00;99.90;;;;;;4640133;30;20671;-79
2023/02/18 05:42:26;;;;;;;51.55;25.58;;;9.10;99.90;;;;;;4653767;30;20205;-77
2023/02/18 05:44:52;;;;;;;49.10;26.15;;;9.10;99.90;;;;;;4647882;30;21372;-79
2023/02/18 05:47:18;;;;;;;53.38;26.08;;;9.10;99.90;;;;;;4652456;30;20764;-78
2023/02/18 05:49:43;;;;;;;45.08;25.73;;;9.10;99.90;;;;;;4650771;30;20356;-76
2023/02/18 05:52:10;;;;;;;50.25;24.38;;;9.10;99.90;;;;;;4651822;30;20686;-76
2023/02/18 05:54:36;;;;;;;45.25;23.77;;;9.20;99.90;;;;;;4638635;30;20228;-81
2023/02/18 05:57:02;;;;;;;45.58;23.33;;;9.20;99.90;;;;;;4652012;30;20205;-79
2023/02/18 05:59:28;;;;;;;42.67;23.75;;;9.20;99.90;;;;;;4652243;30;20350;-80
2023/02/18 06:01:54;;;;;;;38.67;22.40;;;9.20;99.90;;;;;;4649054;30;20208;-81
2023/02/18 06:04:20;;;;;;;42.45;22.40;;;9.30;99.90;;;;;;4650899;30;20200;-79
2023/02/18 06:06:46;;;;;;;33.30;20.13;;;9.20;99.90;;;;;;4652214;30;20205;-77
2023/02/18 06:09:12;;;;;;;32.83;18.77;;;9.30;99.90;;;;;;4647751;30;20193;-76
2023/02/18 06:11:37;;;;;;;32.35;18.95;;;9.30;99.90;;;;;;4649588;30;20206;-76
2023/02/18 06:14:04;;;;;;;34.20;18.63;;;9.40;99.90;;;;;;4643081;30;20232;-76
2023/02/18 06:16:30;;;;;;;31.60;17.83;;;9.40;99.90;;;;;;4636629;30;20256;-78
2023/02/18 06:18:56;;;;;;;28.35;17.45;;;9.40;99.90;;;;;;4648292;30;21716;-76
2023/02/18 06:21:22;;;;;;;28.42;16.42;;;9.40;99.90;;;;;;4650056;30;20197;-77
2023/02/18 06:23:48;;;;;;;25.45;15.70;;;9.50;99.90;;;;;;4652837;30;20204;-76
2023/02/18 06:26:14;;;;;;;28.20;16.23;;;9.50;99.90;;;;;;4647517;30;20210;-77
2023/02/18 06:28:39;;;;;;;26.95;15.05;;;9.50;99.90;;;;;;4650754;30;20212;-78
2023/02/18 06:31:05;;;;;;;24.58;14.18;;;9.50;99.90;;;;;;4652502;30;20199;-75
2023/02/18 06:33:31;;;;;;;28.40;14.57;;;9.60;99.90;;;;;;4649320;30;20264;-80
2023/02/18 06:36:05;;;;;;;28.55;13.55;;;9.60;99.90;;;;;;4652226;30;20189;-81
2023/02/18 06:38:31;;;;;;;25.98;14.23;;;9.60;99.90;;;;;;4650496;30;20192;-78
2023/02/18 06:40:57;;;;;;;22.00;12.43;;;9.70;99.90;;;;;;4650225;30;20545;-75
2023/02/18 06:43:22;;;;;;;22.77;13.00;;;9.70;99.90;;;;;;4651144;30;20213;-77
2023/02/18 06:45:48;;;;;;;24.80;12.05;;;9.80;99.90;;;;;;4637783;30;20284;-76
2023/02/18 06:48:15;;;;;;;21.20;11.63;;;9.80;99.90;;;;;;4652664;30;20244;-78
2023/02/18 06:50:41;;;;;;;20.50;11.40;;;9.80;99.90;;;;;;4651475;30;20263;-77
2023/02/18 06:53:07;;;;;;;18.95;11.30;;;9.80;99.90;;;;;;4651750;30;20237;-76
2023/02/18 06:55:33;;;;;;;19.75;11.48;;;9.80;99.90;;;;;;4636337;30;20218;-75
2023/02/18 06:57:59;;;;;;;19.60;11.60;;;9.80;99.90;;;;;;4651150;30;20275;-75
2023/02/18 07:00:24;;;;;;;19.02;11.30;;;9.90;99.90;;;;;;4649819;30;20320;-75
2023/02/18 07:02:50;;;;;;;17.00;10.20;;;9.90;99.90;;;;;;4650932;30;20208;-78
2023/02/18 07:05:16;;;;;;;16.63;10.38;;;9.90;99.90;;;;;;4650139;30;20296;-75
2023/02/18 07:07:42;;;;;;;20.55;11.38;;;9.90;99.90;;;;;;4627167;30;20650;-80
2023/02/18 07:10:08;;;;;;;20.17;11.98;;;10.00;99.90;;;;;;4636699;30;20208;-82
2023/02/18 07:12:34;;;;;;;20.30;12.35;;;10.00;99.90;;;;;;4651057;30;20201;-79
2023/02/18 07:14:59;;;;;;;23.75;14.05;;;10.00;99.90;;;;;;4625560;30;20240;-75
2023/02/18 07:17:25;;;;;;;25.15;14.23;;;10.00;99.90;;;;;;4649526;30;20340;-76
2023/02/18 07:19:51;;;;;;;29.13;16.30;;;10.10;99.90;;;;;;4654310;30;20210;-79
2023/02/18 07:22:17;;;;;;;31.63;16.67;;;10.10;99.90;;;;;;4646433;30;20202;-76
2023/02/18 07:24:43;;;;;;;36.38;17.70;;;10.10;99.90;;;;;;4653020;30;20231;-78
2023/02/18 07:27:08;;;;;;;34.72;17.42;;;10.20;99.90;;;;;;4653736;30;20209;-76
2023/02/18 07:29:34;;;;;;;34.33;17.50;;;10.20;99.90;;;;;;4654896;30;20353;-76
2023/02/18 07:32:00;;;;;;;33.95;18.08;;;10.20;99.90;;;;;;4642490;30;20431;-75
2023/02/18 07:34:26;;;;;;;33.50;18.27;;;10.30;99.90;;;;;;4649713;30;20320;-87
2023/02/18 07:36:51;;;;;;;31.33;17.35;;;10.30;99.90;;;;;;4643530;30;20201;-82
2023/02/18 07:39:19;;;;;;;34.20;16.52;;;10.30;99.90;;;;;;4639681;30;20209;-76
2023/02/18 07:41:46;;;;;;;29.85;15.52;;;10.30;99.90;;;;;;4660572;30;20652;-79
2023/02/18 07:44:14;;;;;;;29.70;15.75;;;10.40;99.90;;;;;;4640538;30;20209;-79
2023/02/18 07:46:41;;;;;;;26.20;14.98;;;10.40;99.90;;;;;;4656451;30;21893;-80
2023/02/18 07:49:07;;;;;;;19.73;12.27;;;10.40;99.90;;;;;;4657479;30;20209;-76
2023/02/18 07:51:33;;;;;;;23.67;13.40;;;10.50;99.90;;;;;;4655294;30;20200;-81
2023/02/18 07:53:59;;;;;;;27.65;13.82;;;10.40;99.90;;;;;;4642088;30;20569;-80
2023/02/18 07:56:25;;;;;;;30.38;13.80;;;10.50;99.90;;;;;;4655895;30;20223;-81
2023/02/18 07:58:50;;;;;;;24.42;13.48;;;10.50;99.90;;;;;;4650187;30;20252;-76
2023/02/18 08:01:16;;;;;;;24.27;12.88;;;10.50;99.90;;;;;;4654376;30;20205;-76
2023/02/18 08:03:42;;;;;;;30.42;12.70;;;10.50;99.90;;;;;;4653333;30;20343;-77
2023/02/18 08:06:18;;;;;;;23.65;12.57;;;10.50;99.90;;;;;;4625725;30;20205;-76
2023/02/18 08:08:43;;;;;;;24.45;12.18;;;10.50;99.90;;;;;;4653700;30;20192;-77
2023/02/18 08:11:09;;;;;;;25.73;13.37;;;10.50;99.90;;;;;;4652535;30;20474;-81
2023/02/18 08:13:35;;;;;;;21.73;11.55;;;10.60;99.90;;;;;;4628916;30;20288;-77
2023/02/18 08:16:01;;;;;;;27.40;10.98;;;10.50;99.90;;;;;;4652251;30;20221;-75
2023/02/18 08:18:26;;;;;;;20.80;10.68;;;10.50;99.90;;;;;;4651011;30;20271;-76
2023/02/18 08:20:52;;;;;;;19.70;9.52;;;10.50;99.90;;;;;;4652259;30;22843;-77
2023/02/18 08:23:20;;;;;;;22.10;9.68;;;10.50;99.90;;;;;;4654413;30;20284;-76
2023/02/18 08:25:48;;;;;;;19.90;9.15;;;10.60;99.90;;;;;;4653224;30;20209;-79
2023/02/18 08:28:14;;;;;;;21.73;8.63;;;10.50;99.90;;;;;;4653097;30;20209;-77
2023/02/18 08:30:48;;;;;;;19.40;8.15;;;10.50;99.90;;;;;;4651811;30;20773;-75
2023/02/18 08:33:14;;;;;;;20.00;8.07;;;10.60;99.90;;;;;;4649685;30;20286;-75
2023/02/18 08:35:41;;;;;;;22.05;7.50;;;10.50;99.90;;;;;;4651871;30;20288;-78
2023/02/18 08:38:06;;;;;;;16.60;6.38;;;10.50;99.90;;;;;;4653548;30;20260;-78
2023/02/18 08:40:32;;;;;;;16.67;5.80;;;10.50;99.90;;;;;;4639643;30;20192;-79
2023/02/18 08:42:58;;;;;;;16.63;5.82;;;10.50;99.90;;;;;;4639018;30;20575;-77
2023/02/18 08:45:24;;;;;;;14.02;5.38;;;10.50;99.90;;;;;;4639604;30;20201;-75
2023/02/18 08:47:50;;;;;;;15.93;5.15;;;10.50;99.90;;;;;;4649163;30;20362;-78
2023/02/18 08:50:16;;;;;;;13.45;4.63;;;10.40;99.90;;;;;;4653751;30;20697;-78
2023/02/18 08:52:42;;;;;;;12.23;4.75;;;10.50;99.90;;;;;;4653766;30;20204;-77
2023/02/18 08:55:07;;;;;;;15.57;4.75;;;10.40;99.90;;;;;;4642592;30;20230;-76
2023/02/18 08:57:33;;;;;;;16.83;5.57;;;10.40;99.90;;;;;;4640640;30;20696;-75
2023/02/18 08:59:59;;;;;;;15.75;5.22;;;10.40;99.90;;;;;;4652779;30;20293;-76
2023/02/18 09:02:25;;;;;;;11.18;5.35;;;10.40;99.90;;;;;;4648472;30;20657;-75
2023/02/18 09:04:51;;;;;;;14.73;4.88;;;10.40;99.90;;;;;;4639494;30;20220;-77
2023/02/18 09:07:17;;;;;;;12.70;4.60;;;10.40;99.90;;;;;;4653420;30;20695;-77
2023/02/18 09:09:43;;;;;;;11.05;4.82;;;10.40;99.90;;;;;;4653378;30;20216;-77
2023/02/18 09:12:09;;;;;;;11.52;4.55;;;10.40;99.90;;;;;;4650969;30;20218;-74
2023/02/18 09:14:34;;;;;;;11.70;4.07;;;10.40;99.90;;;;;;4653676;30;20325;-78
2023/02/18 09:17:00;;;;;;;8.80;3.00;;;10.30;99.90;;;;;;4654009;30;20245;-77
2023/02/18 09:19:26;;;;;;;11.15;3.95;;;10.30;99.90;;;;;;4653551;30;20209;-78
2023/02/18 09:21:52;;;;;;;12.30;4.10;;;10.30;99.90;;;;;;4658556;30;20275;-77
2023/02/18 09:24:19;;;;;;;12.25;4.20;;;10.30;99.90;;;;;;4635818;30;20218;-80
2023/02/18 09:26:45;;;;;;;13.35;3.90;;;10.30;99.90;;;;;;4641182;30;20848;-80
2023/02/18 09:29:11;;;;;;;14.65;4.05;;;10.30;99.90;;;;;;4655753;30;20307;-77
2023/02/18 09:31:38;;;;;;;13.15;4.50;;;10.30;99.90;;;;;;4632715;30;20197;-78
2023/02/18 09:34:04;;;;;;;9.95;4.10;;;10.20;99.90;;;;;;4656157;30;20249;-80
2023/02/18 09:36:31;;;;;;;13.25;3.97;;;10.20;99.90;;;;;;4635842;30;20206;-77
2023/02/18 09:38:57;;;;;;;15.02;4.07;;;10.20;99.90;;;;;;4657401;30;20198;-77
2023/02/18 09:41:33;;;;;;;9.95;3.38;;;10.30;99.90;;;;;;4655690;30;20300;-78
2023/02/18 09:44:21;;;;;;;10.85;3.45;;;10.20;99.90;;;;;;4649558;30;20212;-82
2023/02/18 09:46:54;;;;;;;9.63;3.95;;;10.20;99.90;;;;;;4657848;30;20207;-80
2023/02/18 09:49:25;;;;;;;13.95;3.90;;;10.20;99.90;;;;;;4639957;30;20210;-79
2023/02/18 09:51:55;;;;;;;14.23;3.17;;;10.20;99.90;;;;;;4635744;30;20188;-83
2023/02/18 09:54:22;;;;;;;11.05;3.22;;;10.30;99.90;;;;;;4654132;30;20323;-83
2023/02/18 09:56:48;;;;;;;11.75;3.35;;;10.30;99.90;;;;;;4654195;30;20198;-76
2023/02/18 09:59:21;;;;;;;12.10;3.50;;;10.30;99.90;;;;;;4652663;30;20304;-77
2023/02/18 10:01:50;;;;;;;12.15;3.28;;;10.30;99.90;;;;;;4652822;30;20559;-76
2023/02/18 10:04:29;;;;;;;12.90;4.00;;;10.30;99.90;;;;;;4653143;30;20212;-78
2023/02/18 10:06:56;;;;;;;15.18;3.03;;;10.30;99.90;;;;;;4653806;30;20200;-76
2023/02/18 10:09:28;;;;;;;16.77;4.15;;;10.40;99.90;;;;;;4653335;30;20202;-80
2023/02/18 10:12:04;;;;;;;19.33;3.90;;;10.40;99.90;;;;;;4639593;30;20193;-77
2023/02/18 10:14:30;;;;;;;15.57;3.85;;;10.40;99.90;;;;;;4652843;30;20243;-77
2023/02/18 10:16:57;;;;;;;21.95;4.15;;;10.50;99.90;;;;;;4651909;30;20241;-77
2023/02/18 10:19:33;;;;;;;17.13;3.20;;;10.50;99.90;;;;;;4652437;30;20206;-76
2023/02/18 10:22:02;;;;;;;13.32;3.53;;;10.50;99.90;;;;;;4652646;30;20300;-76
2023/02/18 10:24:34;;;;;;;17.02;2.92;;;10.50;99.90;;;;;;4651599;30;20263;-75
2023/02/18 10:27:04;;;;;;;12.13;2.75;;;10.60;99.90;;;;;;4650765;30;20196;-84
2023/02/18 10:29:31;;;;;;;24.65;3.70;;;10.60;99.90;;;;;;4652162;30;20193;-78
2023/02/18 10:32:21;;;;;;;19.50;3.15;;;10.60;99.90;;;;;;4638698;30;20225;-77
2023/02/18 10:34:50;;;;;;;17.80;3.13;;;10.70;99.90;;;;;;4628559;30;20226;-77
2023/02/18 10:37:48;;;;;;;13.88;2.67;;;10.70;99.90;;;;;;4651721;30;20197;-81
2023/02/18 10:40:30;;;;;;;12.73;2.92;;;10.70;99.90;;;;;;4651851;30;20273;-78
2023/02/18 10:43:14;;;;;;;25.70;3.50;;;10.70;99.90;;;;;;4653551;30;20204;-77
2023/02/18 10:45:56;;;;;;;11.27;2.63;;;10.80;99.90;;;;;;4653772;30;20200;-77
2023/02/18 10:48:22;;;;;;;20.90;3.55;;;10.80;99.90;;;;;;4652000;30;21637;-75
2023/02/18 10:50:48;;;;;;;19.63;3.15;;;10.90;99.90;;;;;;4652236;30;20201;-78
2023/02/18 10:53:36;;;;;;;16.80;3.15;;;10.90;99.90;;;;;;4655560;30;20239;-75
2023/02/18 10:56:02;;;;;;;13.43;3.58;;;10.90;99.90;;;;;;4633225;30;20197;-75
2023/02/18 10:58:34;;;;;;;19.60;3.65;;;11.00;99.90;;;;;;4657681;30;20192;-77
2023/02/18 11:01:11;;;;;;;15.52;3.17;;;11.00;99.90;;;;;;4657455;30;20204;-75
2023/02/18 11:03:51;;;;;;;12.00;2.90;;;11.10;99.90;;;;;;4656969;30;20204;-75
2023/02/18 11:06:44;;;;;;;16.10;3.50;;;11.10;99.90;;;;;;4656775;30;20193;-75
2023/02/18 11:09:46;;;;;;;21.45;3.70;;;11.10;99.90;;;;;;4655952;30;20264;-76
2023/02/18 11:12:21;;;;;;;19.25;3.53;;;11.20;99.90;;;;;;4655411;30;20207;-76
2023/02/18 11:15:01;;;;;;;21.48;3.65;;;11.20;99.90;;;;;;4656312;30;21264;-82
2023/02/18 11:17:31;;;;;;;21.52;3.47;;;11.20;99.90;;;;;;4623016;30;20242;-78
2023/02/18 11:20:00;;;;;;;14.90;2.85;;;11.30;99.90;;;;;;4636413;30;20193;-76
2023/02/18 11:22:35;;;;;;;12.73;3.15;;;11.30;99.90;;;;;;4638405;30;20229;-78
2023/02/18 11:25:17;;;;;;;10.73;2.92;;;11.30;99.90;;;;;;4637782;30;20274;-79
2023/02/18 11:27:45;;;;;;;17.92;3.42;;;11.40;99.90;;;;;;4639794;30;20340;-79
2023/02/18 11:30:32;;;;;;;13.63;3.05;;;11.40;99.90;;;;;;4636531;30;20202;-77
2023/02/18 11:33:20;;;;;;;13.25;3.60;;;11.40;99.90;;;;;;4637981;30;20194;-78
2023/02/18 11:35:56;;;;;;;16.13;3.10;;;11.40;99.90;;;;;;4637126;30;20495;-79
2023/02/18 11:38:34;;;;;;;13.45;3.58;;;11.40;99.90;;;;;;4638785;30;20656;-78
2023/02/18 11:41:09;;;;;;;15.60;3.58;;;11.50;99.90;;;;;;4635622;30;20197;-83
2023/02/18 11:43:39;;;;;;;20.15;3.83;;;11.50;99.90;;;;;;4636537;30;20267;-78
2023/02/18 11:46:18;;;;;;;20.65;3.65;;;11.50;99.90;;;;;;4639655;30;20206;-76
2023/02/18 11:48:45;;;;;;;19.13;3.58;;;11.50;99.90;;;;;;4637335;30;21041;-79
2023/02/18 11:51:18;;;;;;;20.85;3.50;;;11.50;99.90;;;;;;4639290;30;20563;-76
2023/02/18 11:54:02;;;;;;;26.27;4.05;;;11.50;99.90;;;;;;4636817;30;20260;-80
2023/02/18 11:56:34;;;;;;;13.82;2.70;;;11.60;99.90;;;;;;4636403;30;20225;-81
2023/02/18 11:59:01;;;;;;;19.85;3.40;;;11.60;99.90;;;;;;4636108;30;20244;-77
2023/02/18 12:01:50;;;;;;;19.52;3.42;;;11.60;99.90;;;;;;4636725;30;20190;-80
2023/02/18 12:04:19;;;;;;;20.13;3.22;;;11.60;99.90;;;;;;4637277;30;20633;-78
2023/02/18 12:07:50;;;;;;;22.63;3.80;;;11.60;99.90;;;;;;4635536;30;20281;-77
2023/02/18 12:10:33;;;;;;;15.35;3.47;;;11.60;99.90;;;;;;4565411;31;20204;-78
2023/02/18 12:13:02;;;;;;;21.35;3.58;;;11.70;99.90;;;;;;4632212;30;20210;-75
2023/02/18 12:15:50;;;;;;;14.48;3.28;;;11.70;99.90;;;;;;4637479;30;20210;-79
2023/02/18 12:18:24;;;;;;;12.95;3.28;;;11.70;99.90;;;;;;4609516;30;1152222;-76
2023/02/18 12:21:02;;;;;;;16.15;3.22;;;11.70;99.90;;;;;;4653046;30;20220;-81
2023/02/18 12:23:36;;;;;;;24.17;3.90;;;11.70;99.90;;;;;;4655534;30;20189;-76
2023/02/18 12:26:27;;;;;;;19.13;3.47;;;11.70;99.90;;;;;;4654065;30;20202;-76
2023/02/18 12:29:11;;;;;;;14.38;2.83;;;11.80;99.90;;;;;;4639562;30;20200;-81
2023/02/18 12:32:04;;;;;;;18.45;3.30;;;11.80;99.90;;;;;;4638438;30;20289;-82
2023/02/18 12:34:44;;;;;;;19.10;3.30;;;11.80;99.90;;;;;;4654894;30;20639;-77
2023/02/18 12:37:19;;;;;;;20.83;3.50;;;11.80;99.90;;;;;;4655662;30;20659;-75
2023/02/18 12:39:50;;;;;;;17.27;3.10;;;11.90;99.90;;;;;;4656113;30;20188;-77
2023/02/18 12:42:28;;;;;;;16.95;3.30;;;11.90;99.90;;;;;;4653805;30;20245;-79
2023/02/18 12:45:06;;;;;;;15.77;3.05;;;12.00;99.90;;;;;;4654066;30;20265;-78
2023/02/18 12:48:26;;;;;;;15.75;3.05;;;12.00;99.90;;;;;;4656067;30;20204;-77
2023/02/18 12:51:21;;;;;;;23.52;3.22;;;12.00;99.90;;;;;;4577280;31;20706;-79
2023/02/18 12:54:11;;;;;;;22.80;3.58;;;12.10;99.90;;;;;;4652996;30;20226;-80
2023/02/18 12:56:56;;;;;;;15.70;3.00;;;12.20;99.90;;;;;;4655575;30;20189;-79
2023/02/18 12:59:43;;;;;;;17.67;3.13;;;12.20;99.90;;;;;;4653512;30;20204;-77
2023/02/18 13:02:43;;;;;;;15.02;2.88;;;12.20;99.90;;;;;;4637955;30;20205;-75